Ridgecrest, NC

5:16 AM EST on December 04, 2016 (GMT -0500)
High Rock Acres | | Change Station

Elev 3215 ft 35.59 °N, 82.28 °W | Updated 4 minutes ago

Light Rain
Light Rain Mist
34.9 °F
Feels Like 35 °F
N
0.0
Wind Variable Wind from SW
Gusts 0.0 mph

Today
High -- | Low -- °F
--% Chance of Precip.
Yesterday
High -- | Low -- °F
Precip. -- in
Pressure 30.20 in
Visibility 6.0 miles
Clouds Scattered Clouds 300 ft
Mostly Cloudy 3000 ft
Overcast 4100 ft
Windchill 35 °F
Dew Point 33 °F
Humidity 94%
Rainfall 0.14 in
Snow Depth Not available.
7:23 AM 5:15 PM
Waxing Crescent, 21% visible
SPECI KAVL 041012Z AUTO 17006KT 6SM -RA BR SCT003 BKN030 OVC041 04/03 A3020 RMK AO2 P0001 T00440033
Pressure 30.20 in
Visibility 6.0 miles
Clouds Scattered Clouds 300 ft
Mostly Cloudy 3000 ft
Overcast 4100 ft
Windchill 35 °F
Dew Point 33 °F
Humidity 94%
Rainfall 0.14 in
Snow Depth Not available.
7:23 AM 5:15 PM
Waxing Crescent, 21% visible
SPECI KAVL 041012Z AUTO 17006KT 6SM -RA BR SCT003 BKN030 OVC041 04/03 A3020 RMK AO2 P0001 T00440033

10-Day Weather Forecast

Almanac

Astronomy

Dec. 04, 2016 Rise Set
Actual Time
Civil Twilight
Nautical Twilight
Astronomical Twilight
Moon
Length of Visible Light
Length of Day
Tomorrow will be .
, % of the Moon is Illuminated

Today's Extremes

State Highs State Lows

Community

WunderPhotos

Upload Photos

1,955,591 photos uploaded!

WunderBlog® & News

Nearby

Air Quality

  Air Quality AQ Index Pollutant
Not available.

Snow Depth

Station Depth Elevation

Earthquake Activity

City Distance Mag. Time & Date
Minimum magnitude displayed is 2.5.

Coastal Water Temperatures

Place Temperature

Stations

Nearby Weather Stations

Station Location Temp. Windchill Dew Point Humidity Wind Precip. Elev Updated Type
                   

Watches & Warnings

There are currently no watches in effect.